sensor_id;sensor_type;location;lat;lon;timestamp;pressure;altitude;pressure_sealevel;temperature;humidity
43691;BME280;29293;52.190;21.226;2022-10-31T00:13:40;100752.77;;;6.37;100.00
43691;BME280;29293;52.190;21.226;2022-10-31T00:28:47;100754.92;;;6.29;100.00
43691;BME280;29293;52.190;21.226;2022-10-31T00:43:54;100762.02;;;6.18;100.00
43691;BME280;29293;52.190;21.226;2022-10-31T00:59:01;100761.17;;;5.89;100.00
43691;BME280;29293;52.190;21.226;2022-10-31T01:14:09;100770.92;;;5.72;100.00
43691;BME280;29293;52.190;21.226;2022-10-31T01:29:17;100775.55;;;5.60;100.00
43691;BME280;29293;52.190;21.226;2022-10-31T01:44:54;100772.09;;;5.50;100.00
43691;BME280;29293;52.190;21.226;2022-10-31T02:00:04;100779.31;;;5.38;100.00
43691;BME280;29293;52.190;21.226;2022-10-31T02:15:12;100783.92;;;5.30;100.00
43691;BME280;29293;52.190;21.226;2022-10-31T02:30:22;100784.34;;;5.19;100.00
43691;BME280;29293;52.190;21.226;2022-10-31T02:45:32;100787.79;;;5.04;100.00
43691;BME280;29293;52.190;21.226;2022-10-31T03:00:49;100789.42;;;4.95;100.00
43691;BME280;29293;52.190;21.226;2022-10-31T03:16:07;100792.05;;;4.88;100.00
43691;BME280;29293;52.190;21.226;2022-10-31T03:31:18;100806.35;;;4.84;100.00
43691;BME280;29293;52.190;21.226;2022-10-31T03:46:26;100814.02;;;4.82;100.00
43691;BME280;29293;52.190;21.226;2022-10-31T04:01:36;100827.94;;;4.79;100.00
43691;BME280;29293;52.190;21.226;2022-10-31T04:16:45;100828.48;;;4.74;100.00
43691;BME280;29293;52.190;21.226;2022-10-31T04:31:53;100834.95;;;4.67;100.00
43691;BME280;29293;52.190;21.226;2022-10-31T04:47:00;100838.82;;;4.68;100.00
43691;BME280;29293;52.190;21.226;2022-10-31T05:02:07;100842.94;;;4.70;100.00
43691;BME280;29293;52.190;21.226;2022-10-31T05:17:14;100855.33;;;4.62;100.00
43691;BME280;29293;52.190;21.226;2022-10-31T05:32:21;100862.84;;;4.64;100.00
43691;BME280;29293;52.190;21.226;2022-10-31T05:47:28;100866.95;;;4.66;100.00
43691;BME280;29293;52.190;21.226;2022-10-31T06:02:36;100875.85;;;4.63;100.00
43691;BME280;29293;52.190;21.226;2022-10-31T06:17:43;100877.47;;;4.63;100.00
43691;BME280;29293;52.190;21.226;2022-10-31T06:32:52;100875.27;;;4.74;100.00
43691;BME280;29293;52.190;21.226;2022-10-31T06:47:59;100879.41;;;5.04;100.00
43691;BME280;29293;52.190;21.226;2022-10-31T07:03:09;100896.55;;;5.43;100.00
43691;BME280;29293;52.190;21.226;2022-10-31T07:18:16;100899.21;;;6.00;100.00
43691;BME280;29293;52.190;21.226;2022-10-31T07:33:25;100901.01;;;6.57;100.00
43691;BME280;29293;52.190;21.226;2022-10-31T07:48:32;100909.94;;;7.21;100.00
43691;BME280;29293;52.190;21.226;2022-10-31T08:03:40;100905.02;;;7.85;100.00
43691;BME280;29293;52.190;21.226;2022-10-31T08:18:47;100902.38;;;8.50;100.00
43691;BME280;29293;52.190;21.226;2022-10-31T08:33:55;100904.39;;;9.21;100.00
43691;BME280;29293;52.190;21.226;2022-10-31T08:49:03;100918.43;;;9.78;100.00
43691;BME280;29293;52.190;21.226;2022-10-31T09:04:10;100932.34;;;10.44;100.00
43691;BME280;29293;52.190;21.226;2022-10-31T09:19:17;100933.57;;;11.08;100.00
43691;BME280;29293;52.190;21.226;2022-10-31T09:34:24;100928.00;;;11.73;100.00
43691;BME280;29293;52.190;21.226;2022-10-31T09:49:43;100936.80;;;12.37;100.00
43691;BME280;29293;52.190;21.226;2022-10-31T10:04:59;100931.48;;;12.99;100.00
43691;BME280;29293;52.190;21.226;2022-10-31T10:20:21;100925.76;;;13.53;100.00
43691;BME280;29293;52.190;21.226;2022-10-31T10:35:33;100920.78;;;14.06;100.00
43691;BME280;29293;52.190;21.226;2022-10-31T10:50:46;100904.13;;;14.59;100.00
43691;BME280;29293;52.190;21.226;2022-10-31T11:05:57;100903.39;;;15.06;100.00
43691;BME280;29293;52.190;21.226;2022-10-31T11:21:17;100904.98;;;15.42;100.00
43691;BME280;29293;52.190;21.226;2022-10-31T11:36:29;100901.18;;;15.76;100.00
43691;BME280;29293;52.190;21.226;2022-10-31T11:51:37;100895.48;;;16.05;100.00
43691;BME280;29293;52.190;21.226;2022-10-31T12:06:46;100892.98;;;16.26;100.00
43691;BME280;29293;52.190;21.226;2022-10-31T12:22:11;100889.86;;;16.35;100.00
43691;BME280;29293;52.190;21.226;2022-10-31T12:37:30;100878.73;;;16.50;100.00
43691;BME280;29293;52.190;21.226;2022-10-31T12:52:50;100873.41;;;16.57;100.00
43691;BME280;29293;52.190;21.226;2022-10-31T13:08:08;100867.52;;;16.52;100.00
43691;BME280;29293;52.190;21.226;2022-10-31T13:23:24;100866.48;;;16.46;100.00
43691;BME280;29293;52.190;21.226;2022-10-31T13:38:36;100859.91;;;16.26;100.00
43691;BME280;29293;52.190;21.226;2022-10-31T13:53:56;100865.45;;;15.92;100.00
43691;BME280;29293;52.190;21.226;2022-10-31T14:09:03;100870.48;;;15.61;100.00
43691;BME280;29293;52.190;21.226;2022-10-31T14:24:30;100859.67;;;15.26;100.00
43691;BME280;29293;52.190;21.226;2022-10-31T14:39:44;100858.16;;;14.82;100.00
43691;BME280;29293;52.190;21.226;2022-10-31T14:54:56;100857.77;;;14.27;100.00
43691;BME280;29293;52.190;21.226;2022-10-31T15:10:18;100859.53;;;13.71;100.00
43691;BME280;29293;52.190;21.226;2022-10-31T15:25:28;100870.95;;;13.08;100.00
43691;BME280;29293;52.190;21.226;2022-10-31T15:40:37;100881.65;;;12.43;100.00
43691;BME280;29293;52.190;21.226;2022-10-31T15:55:50;100879.02;;;11.83;100.00
43691;BME280;29293;52.190;21.226;2022-10-31T16:11:00;100890.06;;;11.34;100.00
43691;BME280;29293;52.190;21.226;2022-10-31T16:26:10;100903.28;;;10.93;100.00
43691;BME280;29293;52.190;21.226;2022-10-31T16:41:21;100906.85;;;10.58;100.00
43691;BME280;29293;52.190;21.226;2022-10-31T16:56:30;100909.70;;;10.53;100.00
43691;BME280;29293;52.190;21.226;2022-10-31T17:11:37;100910.27;;;10.63;100.00
43691;BME280;29293;52.190;21.226;2022-10-31T17:26:46;100910.24;;;10.72;100.00
43691;BME280;29293;52.190;21.226;2022-10-31T17:41:53;100908.24;;;10.73;100.00
43691;BME280;29293;52.190;21.226;2022-10-31T17:57:01;100912.94;;;10.74;100.00
43691;BME280;29293;52.190;21.226;2022-10-31T18:12:08;100914.31;;;10.71;100.00
43691;BME280;29293;52.190;21.226;2022-10-31T18:27:15;100910.21;;;10.69;100.00
43691;BME280;29293;52.190;21.226;2022-10-31T18:42:22;100904.40;;;10.69;100.00
43691;BME280;29293;52.190;21.226;2022-10-31T18:57:29;100897.99;;;10.73;100.00
43691;BME280;29293;52.190;21.226;2022-10-31T19:12:37;100899.67;;;10.76;100.00
43691;BME280;29293;52.190;21.226;2022-10-31T19:27:44;100889.23;;;10.80;100.00
43691;BME280;29293;52.190;21.226;2022-10-31T19:42:52;100884.52;;;10.84;100.00
43691;BME280;29293;52.190;21.226;2022-10-31T19:57:58;100879.98;;;10.89;100.00
43691;BME280;29293;52.190;21.226;2022-10-31T20:13:06;100881.63;;;10.94;100.00
43691;BME280;29293;52.190;21.226;2022-10-31T20:28:13;100870.16;;;10.98;100.00
43691;BME280;29293;52.190;21.226;2022-10-31T20:43:21;100862.42;;;11.04;100.00
43691;BME280;29293;52.190;21.226;2022-10-31T20:58:28;100852.70;;;10.92;100.00
43691;BME280;29293;52.190;21.226;2022-10-31T21:13:37;100856.30;;;10.60;100.00
43691;BME280;29293;52.190;21.226;2022-10-31T21:28:44;100855.95;;;10.40;100.00
43691;BME280;29293;52.190;21.226;2022-10-31T21:43:52;100849.36;;;10.27;100.00
43691;BME280;29293;52.190;21.226;2022-10-31T21:58:59;100843.88;;;10.22;100.00
43691;BME280;29293;52.190;21.226;2022-10-31T22:14:09;100833.48;;;10.20;100.00
43691;BME280;29293;52.190;21.226;2022-10-31T22:29:18;100823.14;;;10.20;100.00
43691;BME280;29293;52.190;21.226;2022-10-31T22:44:26;100815.84;;;10.20;100.00
43691;BME280;29293;52.190;21.226;2022-10-31T22:59:33;100807.56;;;10.22;100.00
43691;BME280;29293;52.190;21.226;2022-10-31T23:14:40;100802.00;;;10.23;100.00
43691;BME280;29293;52.190;21.226;2022-10-31T23:29:48;100799.63;;;10.27;100.00
43691;BME280;29293;52.190;21.226;2022-10-31T23:44:55;100807.20;;;10.29;100.00
